Barnes City, Iowa
Current Conditions -  °F | °C
As of 9:15 PM on Monday 20 Oct 2014 (Local Time) from KOOA Reporting Station
Clear Clear  
Wind Chill: 52°   Ceiling: Unl
Heat Index: 52°   Visibility: 10mi
Dew Point: 41°   Wind: 7mph
Humidity: 67%   Direction: 320°NW
Pressure: 30.03"   Gusts: NA
Location:  41.51°N, 92.47°W
Report Text: KOOA 210215Z AUTO 32006KT 10SM CLR 11/05 A3003 RMK AO2 T01100050
Loading
Personal Weather Stations






























Interactive Weather Map
Tropical Storm Tracking
New forecast layout! Learn more

10-Day Weather Forecast

Advertisements
Track Severe Weather on mobile